• Join FlightAware (Why Join?)
  • Login
  • US Flag 
12:11AM EDT


 

Airport Tracker/Info


-or-


 

Live Flight TrackerFlight Track Log ✈ SEJ324 ✈ 07-May-2013 ✈ VECC / CCU - VOMM / MAA

Flight Track Log - Related Links

Times and Time Zones

All times are in EDT time to prevent confusion due to time zone crossing. See the SEJ324 flight status page for this flight to view local times or setup timezone preferences in your user account.

Time Position Orientation Groundspeed Altitude Reporting Facility
EDT Latitude Longitude Course Direction KTS MPH feet Rate Location/Type
06:24AM 22.5970 88.4400 186° South 223 257 2,400  Level FlightAware
06:25AM 22.5650 88.4310 195° South 257 296 3,500 2,700 Climbing FlightAware
06:25AM 22.5300 88.4170 200° South 268 308 5,100 2,940 Climbing FlightAware
06:25AM 22.5010 88.4070 198° South 285 328 6,200 3,120 Climbing FlightAware
06:26AM 22.4630 88.3930 199° South 285 328 8,000 3,480 Climbing FlightAware
06:26AM 22.4310 88.3820 198° South 286 329 9,400 2,400 Climbing FlightAware
06:27AM 22.3730 88.3600 199° South 317 365 10,800 2,160 Climbing FlightAware
06:28AM 22.3110 88.3380 198° South 352 405 12,500 1,860 Climbing FlightAware
06:28AM 22.2520 88.3170 198° South 356 410 13,300 600 Climbing FlightAware
06:29AM 22.1990 88.2980 198° South 356 410 13,300  Level FlightAware
06:30AM 22.1450 88.2800 197° South 356 410 13,300 300 Level FlightAware
06:32AM 22.0115 88.1528 221° Southwest  Level Estimated
06:33AM 21.9337 88.0788 221° Southwest  Level Estimated
06:34AM 21.8559 88.0049 221° Southwest  Level Estimated
06:35AM 21.7780 87.9311 221° Southwest  Level Estimated
06:36AM 21.7001 87.8574 221° Southwest  Level Estimated
06:37AM 21.6221 87.7837 221° Southwest  Level Estimated
06:38AM 21.5442 87.7101 221° Southwest  Level Estimated
06:39AM 21.4662 87.6366 221° Southwest  Level Estimated
06:40AM 21.3881 87.5632 221° Southwest  Level Estimated
06:41AM 21.3101 87.4899 221° Southwest  Level Estimated
06:42AM 21.2320 87.4166 221° Southwest  Level Estimated
06:43AM 21.1538 87.3434 221° Southwest  Level Estimated
06:44AM 21.0757 87.2703 221° Southwest  Level Estimated
06:45AM 20.9975 87.1973 221° Southwest  Level Estimated
06:46AM 20.9193 87.1243 221° Southwest  Level Estimated
06:47AM 20.8410 87.0515 221° Southwest  Level Estimated
06:48AM 20.7627 86.9787 221° Southwest  Level Estimated
06:49AM 20.6844 86.9059 221° Southwest  Level Estimated
06:50AM 20.6060 86.8333 221° Southwest  Level Estimated
06:51AM 20.5277 86.7607 221° Southwest  Level Estimated
06:52AM 20.4492 86.6882 221° Southwest  Level Estimated
06:53AM 20.3708 86.6158 221° Southwest  Level Estimated
06:54AM 20.2923 86.5434 221° Southwest  Level Estimated
06:55AM 20.2138 86.4711 221° Southwest  Level Estimated
06:56AM 20.1353 86.3989 221° Southwest  Level Estimated
06:57AM 20.0567 86.3268 221° Southwest  Level Estimated
06:58AM 19.9781 86.2547 221° Southwest  Level Estimated
06:59AM 19.8995 86.1827 221° Southwest  Level Estimated
07:00AM 19.8209 86.1108 221° Southwest  Level Estimated
07:01AM 19.7422 86.0389 221° Southwest  Level Estimated
07:02AM 19.6635 85.9672 221° Southwest  Level Estimated
07:03AM 19.5848 85.8955 221° Southwest  Level Estimated
07:04AM 19.5060 85.8238 221° Southwest  Level Estimated
07:05AM 19.4272 85.7523 221° Southwest  Level Estimated
07:06AM 19.3484 85.6807 221° Southwest  Level Estimated
07:07AM 19.2696 85.6093 221° Southwest  Level Estimated
07:08AM 19.1907 85.5380 221° Southwest  Level Estimated
07:09AM 19.1118 85.4667 220° Southwest  Level Estimated
07:10AM 19.0329 85.3954 220° Southwest  Level Estimated
07:11AM 18.9539 85.3243 220° Southwest  Level Estimated
07:12AM 18.8750 85.2532 220° Southwest  Level Estimated
07:13AM 18.7959 85.1822 220° Southwest  Level Estimated
07:14AM 18.7169 85.1112 220° Southwest  Level Estimated
07:15AM 18.6378 85.0403 220° Southwest  Level Estimated
07:16AM 18.5588 84.9695 220° Southwest  Level Estimated
07:17AM 18.4797 84.8987 220° Southwest  Level Estimated
07:18AM 18.4005 84.8280 220° Southwest  Level Estimated
07:19AM 18.3213 84.7574 220° Southwest  Level Estimated
07:20AM 18.2421 84.6869 220° Southwest  Level Estimated
07:21AM 18.1629 84.6163 220° Southwest  Level Estimated
07:22AM 18.0837 84.5459 220° Southwest  Level Estimated
07:23AM 18.0044 84.4755 220° Southwest  Level Estimated
07:24AM 17.9251 84.4052 220° Southwest  Level Estimated
07:25AM 17.8458 84.3350 220° Southwest  Level Estimated
07:26AM 17.7665 84.2648 220° Southwest  Level Estimated
07:27AM 17.6871 84.1947 220° Southwest  Level Estimated
07:28AM 17.6077 84.1246 220° Southwest  Level Estimated
07:29AM 17.5283 84.0546 220° Southwest  Level Estimated
07:30AM 17.4489 83.9847 220° Southwest  Level Estimated
07:31AM 17.3694 83.9148 220° Southwest  Level Estimated
07:32AM 17.2899 83.8450 220° Southwest  Level Estimated
07:33AM 17.2104 83.7752 220° Southwest  Level Estimated
07:34AM 17.1308 83.7055 220° Southwest  Level Estimated
07:35AM 17.0513 83.6359 220° Southwest  Level Estimated
07:36AM 16.9717 83.5663 220° Southwest  Level Estimated
07:37AM 16.8921 83.4968 220° Southwest  Level Estimated
07:38AM 16.8124 83.4273 220° Southwest  Level Estimated
07:39AM 16.7328 83.3579 220° Southwest  Level Estimated
07:40AM 16.6531 83.2886 220° Southwest  Level Estimated
07:41AM 16.5734 83.2193 220° Southwest  Level Estimated
07:42AM 16.4937 83.1501 220° Southwest  Level Estimated
07:43AM 16.4139 83.0809 220° Southwest  Level Estimated
07:44AM 16.3342 83.0118 220° Southwest  Level Estimated
07:45AM 16.2544 82.9427 220° Southwest  Level Estimated
07:45AM 15.7400 81.4170 220° Southwest 444 511 40,000  Level FlightAware
07:46AM 16.1745 82.8737 220° Southwest  Level Estimated
07:46AM 15.6670 81.3790 207° Southwest 447 514 40,000  Level FlightAware
07:47AM 15.5970 81.3440 206° Southwest 447 514 40,000  Level FlightAware
07:47AM 15.5340 81.3120 206° Southwest 447 514 40,000  Level FlightAware
07:48AM 15.4320 81.2570 207° Southwest 449 517 40,000  Level FlightAware
07:49AM 15.3680 81.2240 206° Southwest 450 518 40,000  Level FlightAware
07:50AM 15.2930 81.1860 206° Southwest 450 518 40,000  Level FlightAware
07:50AM 15.2170 81.1470 206° Southwest 450 518 40,000  Level FlightAware
07:51AM 15.1370 81.1070 206° Southwest 450 518 40,000  Level FlightAware
07:52AM 15.0730 81.0750 206° Southwest 450 518 40,000  Level FlightAware
07:52AM 15.0100 81.0420 207° Southwest 450 518 40,000  Level FlightAware
07:53AM 14.9000 80.9830 207° Southwest 446 513 40,000  Level FlightAware
07:54AM 14.8220 80.9430 206° Southwest 446 513 40,000  Level FlightAware
07:55AM 14.7580 80.9120 205° Southwest 446 513 40,000 -660 Level FlightAware
07:56AM 14.6280 80.8430 207° Southwest 446 513 39,000 -1,320 Descending FlightAware
07:56AM 14.5490 80.8020 207° Southwest 449 517 38,000 -720 Descending FlightAware
07:57AM 14.4760 80.7650 206° Southwest 449 517 38,000  Level FlightAware
07:58AM 14.4120 80.7330 206° Southwest 449 517 38,000 -2,580 Level FlightAware
07:58AM 14.3120 80.6810 207° Southwest 456 525 34,400 -2,580 Descending FlightAware
07:59AM 14.2470 80.6480 206° Southwest 456 525 34,400 -3,720 Level FlightAware
08:00AM 14.1290 80.5870 207° Southwest 437 503 28,900 -4,080 Descending FlightAware
08:01AM 14.0510 80.5480 206° Southwest 408 470 27,600 -1,140 Descending FlightAware
08:02AM 13.9660 80.5040 207° Southwest 390 449 27,000 -900 Descending FlightAware
08:02AM 13.9030 80.4720 206° Southwest 368 423 26,200 -1,920 Descending FlightAware
08:03AM 13.8370 80.4380 207° Southwest 326 375 24,300 -2,160 Descending FlightAware
08:04AM 13.7850 80.4110 207° Southwest 321 369 23,200 -1,980 Descending FlightAware
08:04AM 13.7270 80.3820 206° Southwest 327 376 21,700 -1,920 Descending FlightAware
08:05AM 13.6720 80.3540 206° Southwest 322 371 20,500 -1,560 Descending FlightAware
08:06AM 13.6160 80.3320 201° Southwest 303 349 19,500 -1,320 Descending FlightAware
08:06AM 13.5590 80.3190 193° South 278 320 18,800 -1,380 Descending FlightAware
08:07AM 13.4990 80.3040 194° South 268 308 17,600 -1,620 Descending FlightAware
08:08AM 13.4370 80.2890 193° South 272 313 16,100 -1,620 Descending FlightAware
08:09AM 13.3680 80.2730 193° South 271 312 14,600 -1,560 Descending FlightAware
08:10AM 13.3140 80.2600 193° South 270 311 13,500 -1,200 Descending FlightAware
08:10AM 13.2690 80.2490 193° South 267 307 13,000 -600 Descending FlightAware
08:11AM 13.2070 80.2340 193° South 267 307 12,700 -600 Descending FlightAware
08:12AM 13.1580 80.2220 193° South 261 300 12,200 -540 Descending FlightAware
08:13AM 13.1140 80.2050 201° Southwest 261 300 12,000 -240 Descending FlightAware
08:13AM 13.1030 80.1880 236° Southwest 264 304 12,000 -360 Level FlightAware
08:13AM 13.0860 80.1410 250° West 265 305 11,700 -660 Descending FlightAware
08:14AM 13.0680 80.0890 250° West 259 298 11,100 -540 Descending FlightAware
08:15AM 13.0510 80.0430 249° West 254 292 11,000 -120 Descending FlightAware
08:16AM 13.0340 79.9990 248° West 253 291 11,000 -240 Level FlightAware
08:16AM 13.0140 79.9480 248° West 251 289 10,700 -360 Descending FlightAware
08:17AM 12.9980 79.9050 249° West 250 288 10,500 -360 Descending FlightAware
08:18AM 12.9800 79.8550 250° West 248 285 10,200 -540 Descending FlightAware
08:18AM 12.9690 79.8250 249° West 247 284 9,900 -780 Descending FlightAware
08:19AM 12.9580 79.7940 250° West 246 283 9,500 -780 Descending FlightAware
08:19AM 12.9480 79.7670 249° West 243 280 9,200 -660 Descending FlightAware
08:20AM 12.9360 79.7350 249° West 242 278 8,900 -720 Descending FlightAware
08:20AM 12.9300 79.7170 251° West 242 278 8,600 -720 Descending FlightAware
08:20AM 12.9180 79.6870 248° West 241 277 8,300 -600 Descending FlightAware
08:21AM 12.9070 79.6540 251° West 239 275 8,000 -300 Descending FlightAware
08:21AM 12.8950 79.6240 248° West 238 274 8,000  Level FlightAware
08:22AM 12.8820 79.5890 249° West 238 274 8,000  Level FlightAware
08:22AM 12.8700 79.5580 248° West 238 274 8,000 -240 Level FlightAware
08:23AM 12.8470 79.5430 212° Southwest 242 278 7,800 -480 Descending FlightAware
08:23AM 12.8170 79.5540 160° South 238 274 7,600 -360 Descending FlightAware
08:24AM 12.8080 79.5780 111° Southeast 224 258 7,500 -360 Descending FlightAware
08:24AM 12.8020 79.6090 101° East 217 250 7,300 -540 Descending FlightAware
08:24AM 12.8010 79.6150 100° East 217 250 7,200 -480 Descending FlightAware
08:25AM 12.7990 79.6490 93° East 212 244 7,000 -240 Descending FlightAware
08:25AM 12.8030 79.6740 81° East 211 243 7,000 -420 Level FlightAware
08:26AM 12.8150 79.7060 69° East 209 241 6,600 -720 Descending FlightAware
08:27AM 12.8300 79.7430 67° East 207 238 6,100 -780 Descending FlightAware
08:27AM 12.8400 79.7690 68° East 211 243 5,700 -840 Descending FlightAware
08:27AM 12.8470 79.7900 71° East 218 251 5,400 -960 Descending FlightAware
08:28AM 12.8570 79.8140 67° East 218 251 5,000 -840 Descending FlightAware
08:28AM 12.8650 79.8370 70° East 217 250 4,700 -840 Descending FlightAware
08:29AM 12.8730 79.8570 68° East 218 251 4,400 -960 Descending FlightAware
08:29AM 12.8840 79.8870 69° East 216 249 3,900 -840 Descending FlightAware
08:29AM 12.8910 79.9060 69° East 216 249 3,700 -720 Descending FlightAware
08:30AM 12.9010 79.9320 68° East 214 246 3,300 -900 Descending FlightAware
08:30AM 12.9060 79.9440 67° East 212 244 3,100 -780 Descending FlightAware
08:31AM 12.9170 79.9730 69° East 209 241 2,800 -540 Descending FlightAware
08:31AM 12.9260 79.9980 70° East 204 235 2,600 -540 Descending FlightAware
08:32AM 12.9360 80.0250 69° East 195 224 2,300 -600 Descending FlightAware
08:32AM 12.9440 80.0450 68° East 183 211 2,100 -420 Descending FlightAware
08:32AM 12.9460 80.0510 71° East 179 206 2,100 -540 Level FlightAware
08:33AM 12.9570 80.0790 68° East 165 190 1,700 -660 Descending FlightAware
08:33AM 12.9630 80.0970 71° East 152 175 1,400 -780 Descending FlightAware
08:34AM 12.9710 80.1180 69° East 149 171 1,000 -840 Descending FlightAware
08:34AM 12.9780 80.1370 69° East 149 171 600 -780 Descending FlightAware
08:35AM 12.9840 80.1540 70° East 149 171 300 -720 Descending FlightAware
08:42AM 12.9944 80.1805 21° North  Level Estimated